sensor_id;sensor_type;location;lat;lon;timestamp;P1;durP1;ratioP1;P2;durP2;ratioP2
77798;SDS011;66989;50.426;15.352;2023-05-08T00:00:16;3.35;;;2.45;;
77798;SDS011;66989;50.426;15.352;2023-05-08T00:02:41;3.70;;;3.30;;
77798;SDS011;66989;50.426;15.352;2023-05-08T00:05:07;3.58;;;2.90;;
77798;SDS011;66989;50.426;15.352;2023-05-08T00:07:32;3.45;;;2.67;;
77798;SDS011;66989;50.426;15.352;2023-05-08T00:09:58;3.20;;;2.90;;
77798;SDS011;66989;50.426;15.352;2023-05-08T00:12:23;4.30;;;2.80;;
77798;SDS011;66989;50.426;15.352;2023-05-08T00:14:48;4.40;;;3.40;;
77798;SDS011;66989;50.426;15.352;2023-05-08T00:17:14;3.95;;;2.92;;
77798;SDS011;66989;50.426;15.352;2023-05-08T00:19:39;4.80;;;3.15;;
77798;SDS011;66989;50.426;15.352;2023-05-08T00:22:04;4.80;;;3.23;;
77798;SDS011;66989;50.426;15.352;2023-05-08T00:24:30;4.50;;;2.90;;
77798;SDS011;66989;50.426;15.352;2023-05-08T00:26:55;4.40;;;3.97;;
77798;SDS011;66989;50.426;15.352;2023-05-08T00:29:20;5.28;;;3.33;;
77798;SDS011;66989;50.426;15.352;2023-05-08T00:31:46;3.83;;;3.45;;
77798;SDS011;66989;50.426;15.352;2023-05-08T00:34:11;5.70;;;3.30;;
77798;SDS011;66989;50.426;15.352;2023-05-08T00:36:36;4.00;;;3.43;;
77798;SDS011;66989;50.426;15.352;2023-05-08T00:39:02;3.92;;;3.42;;
77798;SDS011;66989;50.426;15.352;2023-05-08T00:41:27;4.95;;;3.35;;
77798;SDS011;66989;50.426;15.352;2023-05-08T00:43:53;4.50;;;3.25;;
77798;SDS011;66989;50.426;15.352;2023-05-08T00:46:18;4.17;;;3.77;;
77798;SDS011;66989;50.426;15.352;2023-05-08T00:48:43;4.78;;;3.78;;
77798;SDS011;66989;50.426;15.352;2023-05-08T00:51:10;5.18;;;4.05;;
77798;SDS011;66989;50.426;15.352;2023-05-08T00:53:37;4.60;;;3.92;;
77798;SDS011;66989;50.426;15.352;2023-05-08T00:56:04;4.97;;;3.58;;
77798;SDS011;66989;50.426;15.352;2023-05-08T00:58:32;5.03;;;4.10;;
77798;SDS011;66989;50.426;15.352;2023-05-08T01:00:57;5.28;;;3.50;;
77798;SDS011;66989;50.426;15.352;2023-05-08T01:03:24;4.70;;;3.30;;
77798;SDS011;66989;50.426;15.352;2023-05-08T01:05:49;5.15;;;4.22;;
77798;SDS011;66989;50.426;15.352;2023-05-08T01:08:15;6.28;;;3.83;;
77798;SDS011;66989;50.426;15.352;2023-05-08T01:10:46;6.10;;;4.40;;
77798;SDS011;66989;50.426;15.352;2023-05-08T01:16:16;7.45;;;4.75;;
77798;SDS011;66989;50.426;15.352;2023-05-08T01:18:55;4.90;;;3.83;;
77798;SDS011;66989;50.426;15.352;2023-05-08T01:21:28;4.53;;;3.45;;
77798;SDS011;66989;50.426;15.352;2023-05-08T01:24:10;4.47;;;3.20;;
77798;SDS011;66989;50.426;15.352;2023-05-08T01:32:45;5.55;;;3.55;;
77798;SDS011;66989;50.426;15.352;2023-05-08T01:35:30;6.40;;;3.50;;
77798;SDS011;66989;50.426;15.352;2023-05-08T01:38:02;4.72;;;3.78;;
77798;SDS011;66989;50.426;15.352;2023-05-08T01:43:18;4.75;;;2.97;;
77798;SDS011;66989;50.426;15.352;2023-05-08T01:46:11;4.05;;;3.40;;
77798;SDS011;66989;50.426;15.352;2023-05-08T01:48:45;3.38;;;3.00;;
77798;SDS011;66989;50.426;15.352;2023-05-08T01:51:19;5.90;;;4.28;;
77798;SDS011;66989;50.426;15.352;2023-05-08T01:53:48;6.65;;;3.72;;
77798;SDS011;66989;50.426;15.352;2023-05-08T01:56:18;3.55;;;2.40;;
77798;SDS011;66989;50.426;15.352;2023-05-08T01:58:46;5.10;;;3.25;;
77798;SDS011;66989;50.426;15.352;2023-05-08T02:01:14;4.00;;;3.10;;
77798;SDS011;66989;50.426;15.352;2023-05-08T02:03:44;4.25;;;3.28;;
77798;SDS011;66989;50.426;15.352;2023-05-08T02:06:13;4.70;;;3.25;;
77798;SDS011;66989;50.426;15.352;2023-05-08T02:08:41;5.07;;;3.47;;
77798;SDS011;66989;50.426;15.352;2023-05-08T02:16:01;4.03;;;2.85;;
77798;SDS011;66989;50.426;15.352;2023-05-08T02:18:27;4.32;;;2.95;;
77798;SDS011;66989;50.426;15.352;2023-05-08T02:20:55;3.28;;;2.70;;
77798;SDS011;66989;50.426;15.352;2023-05-08T02:23:24;4.10;;;2.85;;
77798;SDS011;66989;50.426;15.352;2023-05-08T02:25:51;3.80;;;3.28;;
77798;SDS011;66989;50.426;15.352;2023-05-08T02:28:18;4.05;;;3.42;;
77798;SDS011;66989;50.426;15.352;2023-05-08T02:30:44;4.30;;;3.28;;
77798;SDS011;66989;50.426;15.352;2023-05-08T02:33:11;4.05;;;2.92;;
77798;SDS011;66989;50.426;15.352;2023-05-08T02:35:39;5.97;;;3.15;;
77798;SDS011;66989;50.426;15.352;2023-05-08T02:38:07;3.83;;;2.97;;
77798;SDS011;66989;50.426;15.352;2023-05-08T02:40:35;3.00;;;2.70;;
77798;SDS011;66989;50.426;15.352;2023-05-08T02:43:03;4.00;;;3.20;;
77798;SDS011;66989;50.426;15.352;2023-05-08T02:45:31;3.72;;;3.25;;
77798;SDS011;66989;50.426;15.352;2023-05-08T02:48:08;3.65;;;3.15;;
77798;SDS011;66989;50.426;15.352;2023-05-08T02:50:56;3.92;;;2.40;;
77798;SDS011;66989;50.426;15.352;2023-05-08T02:53:34;3.92;;;3.25;;
77798;SDS011;66989;50.426;15.352;2023-05-08T02:56:07;3.88;;;3.28;;
77798;SDS011;66989;50.426;15.352;2023-05-08T03:01:21;2.50;;;2.03;;
77798;SDS011;66989;50.426;15.352;2023-05-08T03:04:10;5.03;;;2.88;;
77798;SDS011;66989;50.426;15.352;2023-05-08T03:06:40;3.03;;;2.30;;
77798;SDS011;66989;50.426;15.352;2023-05-08T03:09:14;3.72;;;2.97;;
77798;SDS011;66989;50.426;15.352;2023-05-08T03:11:42;3.75;;;2.95;;
77798;SDS011;66989;50.426;15.352;2023-05-08T03:14:12;3.25;;;2.63;;
77798;SDS011;66989;50.426;15.352;2023-05-08T03:16:40;3.72;;;2.60;;
77798;SDS011;66989;50.426;15.352;2023-05-08T03:19:13;3.10;;;2.50;;
77798;SDS011;66989;50.426;15.352;2023-05-08T03:21:44;4.05;;;2.65;;
77798;SDS011;66989;50.426;15.352;2023-05-08T03:24:12;3.00;;;2.30;;
77798;SDS011;66989;50.426;15.352;2023-05-08T03:26:41;3.80;;;3.42;;
77798;SDS011;66989;50.426;15.352;2023-05-08T03:29:07;3.17;;;2.88;;
77798;SDS011;66989;50.426;15.352;2023-05-08T03:31:34;3.90;;;3.53;;
77798;SDS011;66989;50.426;15.352;2023-05-08T03:34:01;3.70;;;3.28;;
77798;SDS011;66989;50.426;15.352;2023-05-08T03:36:27;4.20;;;2.30;;
77798;SDS011;66989;50.426;15.352;2023-05-08T03:38:52;4.15;;;3.60;;
77798;SDS011;66989;50.426;15.352;2023-05-08T03:41:18;3.38;;;3.08;;
77798;SDS011;66989;50.426;15.352;2023-05-08T03:43:44;3.20;;;2.90;;
77798;SDS011;66989;50.426;15.352;2023-05-08T03:46:10;2.95;;;2.58;;
77798;SDS011;66989;50.426;15.352;2023-05-08T03:48:36;3.38;;;2.92;;
77798;SDS011;66989;50.426;15.352;2023-05-08T03:51:03;4.13;;;2.53;;
77798;SDS011;66989;50.426;15.352;2023-05-08T03:53:29;3.80;;;2.70;;
77798;SDS011;66989;50.426;15.352;2023-05-08T03:55:56;3.65;;;3.25;;
77798;SDS011;66989;50.426;15.352;2023-05-08T03:58:33;3.97;;;2.95;;
77798;SDS011;66989;50.426;15.352;2023-05-08T04:01:07;3.15;;;2.63;;
77798;SDS011;66989;50.426;15.352;2023-05-08T04:09:27;5.35;;;2.17;;
77798;SDS011;66989;50.426;15.352;2023-05-08T04:12:04;3.72;;;2.38;;
77798;SDS011;66989;50.426;15.352;2023-05-08T04:14:51;4.43;;;2.70;;
77798;SDS011;66989;50.426;15.352;2023-05-08T04:18:03;4.78;;;3.35;;
77798;SDS011;66989;50.426;15.352;2023-05-08T04:20:12;4.13;;;3.13;;
77798;SDS011;66989;50.426;15.352;2023-05-08T04:22:41;4.97;;;3.25;;
77798;SDS011;66989;50.426;15.352;2023-05-08T04:25:09;3.28;;;2.85;;
77798;SDS011;66989;50.426;15.352;2023-05-08T04:27:36;3.70;;;2.55;;
77798;SDS011;66989;50.426;15.352;2023-05-08T04:30:02;2.97;;;2.30;;
77798;SDS011;66989;50.426;15.352;2023-05-08T04:32:29;4.15;;;2.28;;
77798;SDS011;66989;50.426;15.352;2023-05-08T04:34:55;3.47;;;2.28;;
77798;SDS011;66989;50.426;15.352;2023-05-08T04:37:23;4.07;;;3.20;;
77798;SDS011;66989;50.426;15.352;2023-05-08T04:39:50;5.13;;;4.45;;
77798;SDS011;66989;50.426;15.352;2023-05-08T04:42:16;3.15;;;2.20;;
77798;SDS011;66989;50.426;15.352;2023-05-08T04:44:42;4.15;;;2.90;;
77798;SDS011;66989;50.426;15.352;2023-05-08T04:47:07;3.63;;;2.10;;
77798;SDS011;66989;50.426;15.352;2023-05-08T04:49:32;3.17;;;2.33;;
77798;SDS011;66989;50.426;15.352;2023-05-08T04:51:58;3.13;;;2.60;;
77798;SDS011;66989;50.426;15.352;2023-05-08T04:54:23;2.93;;;2.53;;
77798;SDS011;66989;50.426;15.352;2023-05-08T04:56:48;3.07;;;2.53;;
77798;SDS011;66989;50.426;15.352;2023-05-08T04:59:14;2.53;;;2.00;;
77798;SDS011;66989;50.426;15.352;2023-05-08T05:01:39;3.28;;;2.42;;
77798;SDS011;66989;50.426;15.352;2023-05-08T05:04:05;2.90;;;2.40;;
77798;SDS011;66989;50.426;15.352;2023-05-08T05:06:30;2.80;;;2.13;;
77798;SDS011;66989;50.426;15.352;2023-05-08T05:08:57;2.90;;;2.60;;
77798;SDS011;66989;50.426;15.352;2023-05-08T05:11:22;2.70;;;2.10;;
77798;SDS011;66989;50.426;15.352;2023-05-08T05:13:48;2.83;;;2.30;;
77798;SDS011;66989;50.426;15.352;2023-05-08T05:16:13;2.93;;;2.27;;
77798;SDS011;66989;50.426;15.352;2023-05-08T05:18:38;4.10;;;2.00;;
77798;SDS011;66989;50.426;15.352;2023-05-08T05:21:04;3.58;;;3.10;;
77798;SDS011;66989;50.426;15.352;2023-05-08T05:23:29;4.85;;;4.03;;
77798;SDS011;66989;50.426;15.352;2023-05-08T05:25:54;2.85;;;1.95;;
77798;SDS011;66989;50.426;15.352;2023-05-08T05:28:20;3.40;;;2.30;;
77798;SDS011;66989;50.426;15.352;2023-05-08T05:30:46;3.30;;;2.47;;
77798;SDS011;66989;50.426;15.352;2023-05-08T05:33:12;3.47;;;3.17;;
77798;SDS011;66989;50.426;15.352;2023-05-08T05:35:37;4.53;;;2.72;;
77798;SDS011;66989;50.426;15.352;2023-05-08T05:38:02;2.67;;;2.10;;
77798;SDS011;66989;50.426;15.352;2023-05-08T05:40:29;2.13;;;1.92;;
77798;SDS011;66989;50.426;15.352;2023-05-08T05:42:54;2.83;;;2.63;;
77798;SDS011;66989;50.426;15.352;2023-05-08T05:45:20;6.68;;;3.75;;
77798;SDS011;66989;50.426;15.352;2023-05-08T05:47:45;3.35;;;2.42;;
77798;SDS011;66989;50.426;15.352;2023-05-08T05:50:13;2.90;;;2.38;;
77798;SDS011;66989;50.426;15.352;2023-05-08T05:52:40;3.17;;;2.72;;
77798;SDS011;66989;50.426;15.352;2023-05-08T05:55:05;2.38;;;2.08;;
77798;SDS011;66989;50.426;15.352;2023-05-08T05:57:31;3.30;;;2.45;;
77798;SDS011;66989;50.426;15.352;2023-05-08T05:59:58;3.17;;;2.58;;
77798;SDS011;66989;50.426;15.352;2023-05-08T06:02:23;2.72;;;2.47;;
77798;SDS011;66989;50.426;15.352;2023-05-08T06:04:50;3.40;;;2.60;;
77798;SDS011;66989;50.426;15.352;2023-05-08T06:07:15;2.10;;;1.90;;
77798;SDS011;66989;50.426;15.352;2023-05-08T06:09:41;3.42;;;2.78;;
77798;SDS011;66989;50.426;15.352;2023-05-08T06:12:06;3.35;;;2.15;;
77798;SDS011;66989;50.426;15.352;2023-05-08T06:14:32;3.25;;;2.15;;
77798;SDS011;66989;50.426;15.352;2023-05-08T06:16:57;3.30;;;2.35;;
77798;SDS011;66989;50.426;15.352;2023-05-08T06:19:23;4.10;;;3.20;;
77798;SDS011;66989;50.426;15.352;2023-05-08T06:21:50;2.88;;;2.42;;
77798;SDS011;66989;50.426;15.352;2023-05-08T06:24:15;2.60;;;2.30;;
77798;SDS011;66989;50.426;15.352;2023-05-08T06:26:41;2.53;;;1.95;;
77798;SDS011;66989;50.426;15.352;2023-05-08T06:29:06;2.77;;;2.47;;
77798;SDS011;66989;50.426;15.352;2023-05-08T06:31:31;2.53;;;2.33;;
77798;SDS011;66989;50.426;15.352;2023-05-08T06:33:57;2.03;;;1.58;;
77798;SDS011;66989;50.426;15.352;2023-05-08T06:36:22;1.98;;;1.75;;
77798;SDS011;66989;50.426;15.352;2023-05-08T06:38:47;3.40;;;2.15;;
77798;SDS011;66989;50.426;15.352;2023-05-08T06:41:13;3.25;;;2.95;;
77798;SDS011;66989;50.426;15.352;2023-05-08T06:43:38;6.15;;;4.50;;
77798;SDS011;66989;50.426;15.352;2023-05-08T06:46:04;3.95;;;2.83;;
77798;SDS011;66989;50.426;15.352;2023-05-08T06:48:29;4.53;;;3.33;;
77798;SDS011;66989;50.426;15.352;2023-05-08T06:50:54;2.58;;;1.67;;
77798;SDS011;66989;50.426;15.352;2023-05-08T06:53:20;3.65;;;2.70;;
77798;SDS011;66989;50.426;15.352;2023-05-08T06:55:45;2.03;;;1.55;;
77798;SDS011;66989;50.426;15.352;2023-05-08T06:58:11;2.45;;;2.13;;
77798;SDS011;66989;50.426;15.352;2023-05-08T07:00:36;3.33;;;1.95;;
77798;SDS011;66989;50.426;15.352;2023-05-08T07:03:02;2.67;;;2.47;;
77798;SDS011;66989;50.426;15.352;2023-05-08T07:05:27;2.00;;;1.80;;
77798;SDS011;66989;50.426;15.352;2023-05-08T07:07:53;2.50;;;2.30;;
77798;SDS011;66989;50.426;15.352;2023-05-08T07:10:19;2.20;;;2.00;;
77798;SDS011;66989;50.426;15.352;2023-05-08T07:12:47;2.05;;;1.77;;
77798;SDS011;66989;50.426;15.352;2023-05-08T07:15:15;2.65;;;1.83;;
77798;SDS011;66989;50.426;15.352;2023-05-08T07:17:40;3.40;;;1.40;;
77798;SDS011;66989;50.426;15.352;2023-05-08T07:20:06;2.20;;;1.88;;
77798;SDS011;66989;50.426;15.352;2023-05-08T07:22:32;2.58;;;1.77;;
77798;SDS011;66989;50.426;15.352;2023-05-08T07:24:58;1.98;;;1.75;;
77798;SDS011;66989;50.426;15.352;2023-05-08T07:27:24;2.38;;;2.17;;
77798;SDS011;66989;50.426;15.352;2023-05-08T07:29:49;2.10;;;1.90;;
77798;SDS011;66989;50.426;15.352;2023-05-08T07:32:15;1.98;;;1.48;;
77798;SDS011;66989;50.426;15.352;2023-05-08T07:34:41;3.53;;;1.55;;
77798;SDS011;66989;50.426;15.352;2023-05-08T07:37:07;1.60;;;1.48;;
77798;SDS011;66989;50.426;15.352;2023-05-08T07:39:33;4.78;;;1.98;;
77798;SDS011;66989;50.426;15.352;2023-05-08T07:41:58;1.83;;;1.25;;
77798;SDS011;66989;50.426;15.352;2023-05-08T07:44:23;2.33;;;2.08;;
77798;SDS011;66989;50.426;15.352;2023-05-08T07:46:49;2.88;;;1.88;;
77798;SDS011;66989;50.426;15.352;2023-05-08T07:49:15;2.35;;;2.08;;
77798;SDS011;66989;50.426;15.352;2023-05-08T07:51:40;2.35;;;1.70;;
77798;SDS011;66989;50.426;15.352;2023-05-08T07:54:06;2.20;;;1.45;;
77798;SDS011;66989;50.426;15.352;2023-05-08T07:56:31;1.92;;;1.65;;
77798;SDS011;66989;50.426;15.352;2023-05-08T07:58:56;2.20;;;1.55;;
77798;SDS011;66989;50.426;15.352;2023-05-08T08:01:22;2.47;;;1.70;;
77798;SDS011;66989;50.426;15.352;2023-05-08T08:03:47;1.47;;;1.20;;
77798;SDS011;66989;50.426;15.352;2023-05-08T08:06:12;1.93;;;0.40;;
77798;SDS011;66989;50.426;15.352;2023-05-08T08:08:38;2.58;;;0.60;;
77798;SDS011;66989;50.426;15.352;2023-05-08T08:11:04;1.73;;;1.17;;
77798;SDS011;66989;50.426;15.352;2023-05-08T08:15:56;4.50;;;1.27;;
77798;SDS011;66989;50.426;15.352;2023-05-08T08:18:22;1.70;;;1.20;;
77798;SDS011;66989;50.426;15.352;2023-05-08T08:20:47;3.55;;;1.73;;
77798;SDS011;66989;50.426;15.352;2023-05-08T08:23:13;2.10;;;0.93;;
77798;SDS011;66989;50.426;15.352;2023-05-08T08:25:38;1.92;;;1.25;;
77798;SDS011;66989;50.426;15.352;2023-05-08T08:28:03;1.20;;;0.32;;
77798;SDS011;66989;50.426;15.352;2023-05-08T08:30:29;1.40;;;1.23;;
77798;SDS011;66989;50.426;15.352;2023-05-08T08:32:54;2.25;;;2.05;;
77798;SDS011;66989;50.426;15.352;2023-05-08T08:35:20;1.70;;;1.27;;
77798;SDS011;66989;50.426;15.352;2023-05-08T08:37:46;1.48;;;1.33;;
77798;SDS011;66989;50.426;15.352;2023-05-08T08:40:12;2.35;;;1.27;;
77798;SDS011;66989;50.426;15.352;2023-05-08T08:42:37;1.30;;;1.15;;
77798;SDS011;66989;50.426;15.352;2023-05-08T08:45:03;1.63;;;1.52;;
77798;SDS011;66989;50.426;15.352;2023-05-08T08:47:31;1.77;;;1.25;;
77798;SDS011;66989;50.426;15.352;2023-05-08T08:50:02;2.13;;;1.20;;
77798;SDS011;66989;50.426;15.352;2023-05-08T08:54:56;2.13;;;1.33;;
77798;SDS011;66989;50.426;15.352;2023-05-08T08:57:26;2.83;;;1.40;;
77798;SDS011;66989;50.426;15.352;2023-05-08T08:59:55;2.28;;;1.33;;
77798;SDS011;66989;50.426;15.352;2023-05-08T09:02:23;2.08;;;1.20;;
77798;SDS011;66989;50.426;15.352;2023-05-08T09:04:50;1.70;;;0.98;;
77798;SDS011;66989;50.426;15.352;2023-05-08T09:07:17;1.55;;;1.35;;
77798;SDS011;66989;50.426;15.352;2023-05-08T09:12:10;1.25;;;0.90;;
77798;SDS011;66989;50.426;15.352;2023-05-08T09:14:36;2.03;;;0.82;;
77798;SDS011;66989;50.426;15.352;2023-05-08T09:17:02;1.30;;;0.85;;
77798;SDS011;66989;50.426;15.352;2023-05-08T09:19:28;2.92;;;1.00;;
77798;SDS011;66989;50.426;15.352;2023-05-08T09:21:53;1.50;;;1.20;;
77798;SDS011;66989;50.426;15.352;2023-05-08T09:24:19;3.58;;;1.00;;
77798;SDS011;66989;50.426;15.352;2023-05-08T09:26:44;0.82;;;0.50;;
77798;SDS011;66989;50.426;15.352;2023-05-08T09:31:41;1.17;;;0.85;;
77798;SDS011;66989;50.426;15.352;2023-05-08T09:34:08;1.15;;;1.05;;
77798;SDS011;66989;50.426;15.352;2023-05-08T09:36:35;1.45;;;1.27;;
77798;SDS011;66989;50.426;15.352;2023-05-08T09:39:04;1.30;;;1.00;;
77798;SDS011;66989;50.426;15.352;2023-05-08T09:41:35;2.20;;;2.00;;
77798;SDS011;66989;50.426;15.352;2023-05-08T09:46:29;1.48;;;1.17;;
77798;SDS011;66989;50.426;15.352;2023-05-08T09:48:56;2.80;;;1.20;;
77798;SDS011;66989;50.426;15.352;2023-05-08T09:51:24;2.22;;;1.15;;
77798;SDS011;66989;50.426;15.352;2023-05-08T09:53:53;1.45;;;1.27;;
77798;SDS011;66989;50.426;15.352;2023-05-08T09:56:30;2.83;;;1.50;;
77798;SDS011;66989;50.426;15.352;2023-05-08T09:58:57;2.25;;;1.25;;
77798;SDS011;66989;50.426;15.352;2023-05-08T10:01:26;2.17;;;0.50;;
77798;SDS011;66989;50.426;15.352;2023-05-08T10:03:56;1.92;;;1.10;;
77798;SDS011;66989;50.426;15.352;2023-05-08T10:06:22;2.83;;;1.45;;
77798;SDS011;66989;50.426;15.352;2023-05-08T10:08:47;1.73;;;1.52;;
77798;SDS011;66989;50.426;15.352;2023-05-08T10:11:17;2.03;;;1.48;;
77798;SDS011;66989;50.426;15.352;2023-05-08T10:13:46;1.50;;;1.35;;
77798;SDS011;66989;50.426;15.352;2023-05-08T10:16:15;3.25;;;2.10;;
77798;SDS011;66989;50.426;15.352;2023-05-08T10:18:46;1.02;;;0.93;;
77798;SDS011;66989;50.426;15.352;2023-05-08T10:21:13;2.70;;;1.52;;
77798;SDS011;66989;50.426;15.352;2023-05-08T10:23:40;1.92;;;1.73;;
77798;SDS011;66989;50.426;15.352;2023-05-08T10:26:11;1.65;;;1.05;;
77798;SDS011;66989;50.426;15.352;2023-05-08T10:28:54;2.78;;;1.83;;
77798;SDS011;66989;50.426;15.352;2023-05-08T10:31:27;1.42;;;1.30;;
77798;SDS011;66989;50.426;15.352;2023-05-08T10:33:58;1.55;;;1.15;;
77798;SDS011;66989;50.426;15.352;2023-05-08T10:36:26;1.88;;;1.58;;
77798;SDS011;66989;50.426;15.352;2023-05-08T10:38:52;1.73;;;1.00;;
77798;SDS011;66989;50.426;15.352;2023-05-08T10:41:18;1.70;;;1.42;;
77798;SDS011;66989;50.426;15.352;2023-05-08T10:43:44;2.45;;;2.25;;
77798;SDS011;66989;50.426;15.352;2023-05-08T10:49:22;2.03;;;1.42;;
77798;SDS011;66989;50.426;15.352;2023-05-08T10:57:31;1.70;;;1.50;;
77798;SDS011;66989;50.426;15.352;2023-05-08T10:59:57;8.68;;;1.90;;
77798;SDS011;66989;50.426;15.352;2023-05-08T11:02:26;1.85;;;1.75;;
77798;SDS011;66989;50.426;15.352;2023-05-08T11:04:54;2.65;;;2.40;;
77798;SDS011;66989;50.426;15.352;2023-05-08T11:07:57;3.08;;;1.65;;
77798;SDS011;66989;50.426;15.352;2023-05-08T11:10:30;2.13;;;1.80;;
77798;SDS011;66989;50.426;15.352;2023-05-08T11:12:56;6.07;;;1.98;;
77798;SDS011;66989;50.426;15.352;2023-05-08T11:15:38;1.95;;;1.85;;
77798;SDS011;66989;50.426;15.352;2023-05-08T11:18:08;2.35;;;1.33;;
77798;SDS011;66989;50.426;15.352;2023-05-08T11:20:41;2.75;;;1.70;;
77798;SDS011;66989;50.426;15.352;2023-05-08T11:23:33;3.35;;;1.95;;
77798;SDS011;66989;50.426;15.352;2023-05-08T11:26:04;3.10;;;2.90;;
77798;SDS011;66989;50.426;15.352;2023-05-08T11:28:54;2.55;;;1.73;;
77798;SDS011;66989;50.426;15.352;2023-05-08T11:31:22;2.10;;;1.35;;
77798;SDS011;66989;50.426;15.352;2023-05-08T11:33:48;2.33;;;2.13;;
77798;SDS011;66989;50.426;15.352;2023-05-08T11:41:08;2.35;;;1.60;;
77798;SDS011;66989;50.426;15.352;2023-05-08T11:46:15;2.75;;;1.45;;
77798;SDS011;66989;50.426;15.352;2023-05-08T11:48:42;2.42;;;1.85;;
77798;SDS011;66989;50.426;15.352;2023-05-08T11:51:07;1.58;;;1.48;;
77798;SDS011;66989;50.426;15.352;2023-05-08T11:53:34;1.55;;;1.05;;
77798;SDS011;66989;50.426;15.352;2023-05-08T11:56:01;2.72;;;1.90;;
77798;SDS011;66989;50.426;15.352;2023-05-08T11:58:27;1.40;;;1.25;;
77798;SDS011;66989;50.426;15.352;2023-05-08T12:00:53;1.83;;;1.40;;
77798;SDS011;66989;50.426;15.352;2023-05-08T12:03:20;1.80;;;1.52;;
77798;SDS011;66989;50.426;15.352;2023-05-08T12:05:47;2.78;;;1.90;;
77798;SDS011;66989;50.426;15.352;2023-05-08T12:08:14;1.92;;;1.23;;
77798;SDS011;66989;50.426;15.352;2023-05-08T12:10:50;3.83;;;1.35;;
77798;SDS011;66989;50.426;15.352;2023-05-08T12:13:26;1.88;;;1.73;;
77798;SDS011;66989;50.426;15.352;2023-05-08T12:15:53;1.90;;;1.58;;
77798;SDS011;66989;50.426;15.352;2023-05-08T12:18:21;2.90;;;1.67;;
77798;SDS011;66989;50.426;15.352;2023-05-08T12:21:05;2.97;;;1.65;;
77798;SDS011;66989;50.426;15.352;2023-05-08T12:23:31;2.40;;;1.88;;
77798;SDS011;66989;50.426;15.352;2023-05-08T12:25:59;2.83;;;1.55;;
77798;SDS011;66989;50.426;15.352;2023-05-08T12:28:25;4.72;;;1.90;;
77798;SDS011;66989;50.426;15.352;2023-05-08T12:30:51;2.60;;;1.75;;
77798;SDS011;66989;50.426;15.352;2023-05-08T12:33:17;7.72;;;6.40;;
77798;SDS011;66989;50.426;15.352;2023-05-08T12:35:43;2.50;;;2.10;;
77798;SDS011;66989;50.426;15.352;2023-05-08T12:38:09;2.00;;;1.80;;
77798;SDS011;66989;50.426;15.352;2023-05-08T12:43:08;2.08;;;1.33;;
77798;SDS011;66989;50.426;15.352;2023-05-08T12:45:36;2.10;;;1.88;;
77798;SDS011;66989;50.426;15.352;2023-05-08T12:48:12;2.88;;;1.85;;
77798;SDS011;66989;50.426;15.352;2023-05-08T12:50:42;3.10;;;2.05;;
77798;SDS011;66989;50.426;15.352;2023-05-08T12:53:10;5.03;;;1.92;;
77798;SDS011;66989;50.426;15.352;2023-05-08T12:55:38;1.65;;;1.48;;
77798;SDS011;66989;50.426;15.352;2023-05-08T12:58:11;3.90;;;3.47;;
77798;SDS011;66989;50.426;15.352;2023-05-08T13:00:39;1.98;;;1.75;;
77798;SDS011;66989;50.426;15.352;2023-05-08T13:03:07;2.35;;;1.80;;
77798;SDS011;66989;50.426;15.352;2023-05-08T13:05:34;2.30;;;1.75;;
77798;SDS011;66989;50.426;15.352;2023-05-08T13:08:03;1.75;;;1.48;;
77798;SDS011;66989;50.426;15.352;2023-05-08T13:13:14;3.45;;;1.88;;
77798;SDS011;66989;50.426;15.352;2023-05-08T13:15:48;6.55;;;2.28;;
77798;SDS011;66989;50.426;15.352;2023-05-08T13:18:15;1.90;;;1.73;;
77798;SDS011;66989;50.426;15.352;2023-05-08T13:20:41;2.08;;;1.88;;
77798;SDS011;66989;50.426;15.352;2023-05-08T13:23:07;2.83;;;1.90;;
77798;SDS011;66989;50.426;15.352;2023-05-08T13:25:37;2.70;;;2.50;;
77798;SDS011;66989;50.426;15.352;2023-05-08T13:28:03;3.40;;;2.17;;
77798;SDS011;66989;50.426;15.352;2023-05-08T13:30:29;3.33;;;1.52;;
77798;SDS011;66989;50.426;15.352;2023-05-08T13:32:55;3.22;;;1.92;;
77798;SDS011;66989;50.426;15.352;2023-05-08T13:35:21;2.65;;;1.73;;
77798;SDS011;66989;50.426;15.352;2023-05-08T13:37:46;2.92;;;2.35;;
77798;SDS011;66989;50.426;15.352;2023-05-08T13:40:12;3.00;;;1.85;;
77798;SDS011;66989;50.426;15.352;2023-05-08T13:42:38;3.60;;;1.95;;
77798;SDS011;66989;50.426;15.352;2023-05-08T13:45:07;2.25;;;1.85;;
77798;SDS011;66989;50.426;15.352;2023-05-08T13:47:35;2.75;;;1.48;;
77798;SDS011;66989;50.426;15.352;2023-05-08T13:50:01;2.10;;;1.90;;
77798;SDS011;66989;50.426;15.352;2023-05-08T13:52:27;2.38;;;2.00;;
77798;SDS011;66989;50.426;15.352;2023-05-08T13:54:55;2.17;;;1.90;;
77798;SDS011;66989;50.426;15.352;2023-05-08T13:57:22;2.33;;;1.75;;
77798;SDS011;66989;50.426;15.352;2023-05-08T13:59:48;2.30;;;2.00;;
77798;SDS011;66989;50.426;15.352;2023-05-08T14:02:14;1.95;;;1.83;;
77798;SDS011;66989;50.426;15.352;2023-05-08T14:04:39;2.60;;;2.17;;
77798;SDS011;66989;50.426;15.352;2023-05-08T14:07:05;3.60;;;1.85;;
77798;SDS011;66989;50.426;15.352;2023-05-08T14:09:31;2.33;;;2.08;;
77798;SDS011;66989;50.426;15.352;2023-05-08T14:11:56;3.05;;;1.77;;
77798;SDS011;66989;50.426;15.352;2023-05-08T14:14:22;3.40;;;2.17;;
77798;SDS011;66989;50.426;15.352;2023-05-08T14:16:47;2.33;;;1.95;;
77798;SDS011;66989;50.426;15.352;2023-05-08T14:19:14;3.13;;;2.70;;
77798;SDS011;66989;50.426;15.352;2023-05-08T14:21:40;2.65;;;2.45;;
77798;SDS011;66989;50.426;15.352;2023-05-08T14:24:06;2.58;;;2.25;;
77798;SDS011;66989;50.426;15.352;2023-05-08T14:26:32;3.00;;;2.30;;
77798;SDS011;66989;50.426;15.352;2023-05-08T14:28:58;3.35;;;1.73;;
77798;SDS011;66989;50.426;15.352;2023-05-08T14:31:23;3.30;;;1.98;;
77798;SDS011;66989;50.426;15.352;2023-05-08T14:33:49;2.92;;;2.50;;
77798;SDS011;66989;50.426;15.352;2023-05-08T14:36:14;2.03;;;1.80;;
77798;SDS011;66989;50.426;15.352;2023-05-08T14:38:39;3.03;;;2.72;;
77798;SDS011;66989;50.426;15.352;2023-05-08T14:41:05;2.73;;;2.43;;
77798;SDS011;66989;50.426;15.352;2023-05-08T14:43:30;2.83;;;2.17;;
77798;SDS011;66989;50.426;15.352;2023-05-08T14:45:55;2.65;;;1.63;;
77798;SDS011;66989;50.426;15.352;2023-05-08T14:48:21;2.03;;;1.77;;
77798;SDS011;66989;50.426;15.352;2023-05-08T14:50:46;2.53;;;1.33;;
77798;SDS011;66989;50.426;15.352;2023-05-08T14:53:11;2.22;;;1.88;;
77798;SDS011;66989;50.426;15.352;2023-05-08T14:55:37;3.30;;;1.52;;
77798;SDS011;66989;50.426;15.352;2023-05-08T14:58:02;4.13;;;2.88;;
77798;SDS011;66989;50.426;15.352;2023-05-08T15:00:27;3.05;;;1.67;;
77798;SDS011;66989;50.426;15.352;2023-05-08T15:02:53;1.98;;;1.80;;
77798;SDS011;66989;50.426;15.352;2023-05-08T15:05:18;2.55;;;1.60;;
77798;SDS011;66989;50.426;15.352;2023-05-08T15:07:44;4.75;;;2.20;;
77798;SDS011;66989;50.426;15.352;2023-05-08T15:10:09;2.63;;;1.63;;
77798;SDS011;66989;50.426;15.352;2023-05-08T15:12:34;2.85;;;1.98;;
77798;SDS011;66989;50.426;15.352;2023-05-08T15:15:00;3.67;;;2.20;;
77798;SDS011;66989;50.426;15.352;2023-05-08T15:17:25;3.30;;;1.67;;
77798;SDS011;66989;50.426;15.352;2023-05-08T15:19:50;4.80;;;2.17;;
77798;SDS011;66989;50.426;15.352;2023-05-08T15:22:16;2.63;;;2.13;;
77798;SDS011;66989;50.426;15.352;2023-05-08T15:24:44;3.10;;;2.55;;
77798;SDS011;66989;50.426;15.352;2023-05-08T15:27:09;4.20;;;2.25;;
77798;SDS011;66989;50.426;15.352;2023-05-08T15:29:36;2.75;;;2.42;;
77798;SDS011;66989;50.426;15.352;2023-05-08T15:32:03;3.17;;;2.22;;
77798;SDS011;66989;50.426;15.352;2023-05-08T15:34:29;3.35;;;2.22;;